Time;durP1;ratioP1;P1;durP2;ratioP2;P2;SDS_P1;SDS_P2;PMS_P1;PMS_P2;Temp;Humidity;BMP_temperature;BMP_pressure;BME280_temperature;BME280_humidity;BME280_pressure;Samples;Min_cycle;Max_cycle;Signal;HPM_P1;HPM_P2
2022/06/30 00:00:15;;;;;;;7.05;5.85;;;;;;;20.84;66.29;100836.69;1731399;81;21491;-92
2022/06/30 00:02:42;;;;;;;6.08;5.47;;;;;;;20.79;66.43;100837.16;1730850;81;21138;-91
2022/06/30 00:05:08;;;;;;;9.33;6.55;;;;;;;20.74;66.58;100838.59;1730664;81;20888;-92
2022/06/30 00:07:36;;;;;;;9.13;5.83;;;;;;;20.66;66.85;100834.86;1730966;81;20915;-91
2022/06/30 00:10:05;;;;;;;8.85;5.45;;;;;;;20.61;67.15;100823.83;1730798;81;20911;-90
2022/06/30 00:12:32;;;;;;;8.40;6.25;;;;;;;20.57;67.11;100813.63;1733425;81;20872;-90
2022/06/30 00:15:00;;;;;;;9.08;6.30;;;;;;;20.54;67.24;100808.56;1732983;83;21199;-90
2022/06/30 00:17:27;;;;;;;9.43;6.83;;;;;;;20.50;67.01;100803.55;1731827;83;21019;-92
2022/06/30 00:19:53;;;;;;;6.95;6.15;;;;;;;20.47;66.91;100803.00;1731873;83;21401;-91
2022/06/30 00:22:20;;;;;;;7.62;6.53;;;;;;;20.45;66.79;100795.18;1731220;82;20876;-91
2022/06/30 00:24:47;;;;;;;7.87;6.00;;;;;;;20.45;66.97;100791.19;1730721;81;21022;-92
2022/06/30 00:27:15;;;;;;;6.75;6.08;;;;;;;20.43;67.11;100783.84;1730456;82;21241;-91
2022/06/30 00:29:42;;;;;;;11.20;5.90;;;;;;;20.42;67.26;100790.14;1730942;82;20927;-91
2022/06/30 00:32:09;;;;;;;6.22;5.37;;;;;;;20.38;67.44;100787.43;1731534;82;20955;-91
2022/06/30 00:34:37;;;;;;;8.95;6.28;;;;;;;20.36;67.29;100793.41;1733365;83;20928;-90
2022/06/30 00:37:04;;;;;;;10.93;6.62;;;;;;;20.33;67.09;100788.89;1732647;83;21345;-91
2022/06/30 00:39:32;;;;;;;7.90;6.33;;;;;;;20.29;67.46;100791.01;1730582;81;21262;-90
2022/06/30 00:41:58;;;;;;;7.28;5.83;;;;;;;20.25;67.81;100794.48;1730757;81;21053;-91
2022/06/30 00:44:25;;;;;;;6.25;5.65;;;;;;;20.21;68.23;100789.11;1730687;81;20907;-90
2022/06/30 00:46:52;;;;;;;6.30;5.80;;;;;;;20.15;68.58;100779.05;1731060;81;20911;-92
2022/06/30 00:49:23;;;;;;;8.43;6.25;;;;;;;20.11;68.80;100782.17;1731009;81;20990;-90
2022/06/30 00:51:47;;;;;;;7.83;6.60;;;;;;;20.06;68.77;100770.64;1731963;82;21952;-90
2022/06/30 00:54:14;;;;;;;9.38;6.70;;;;;;;20.02;68.81;100778.08;1756876;81;20892;-90
2022/06/30 00:56:43;;;;;;;10.48;6.08;;;;;;;20.02;69.13;100772.75;1740510;82;20892;-90
2022/06/30 00:59:10;;;;;;;7.25;6.30;;;;;;;20.00;69.10;100776.05;1740297;81;21405;-91
2022/06/30 01:01:37;;;;;;;8.73;6.30;;;;;;;19.96;69.27;100770.68;1740113;82;20967;-92
2022/06/30 01:04:05;;;;;;;8.60;6.97;;;;;;;19.92;69.41;100765.80;1730872;81;21114;-90
2022/06/30 01:06:35;;;;;;;7.92;6.53;;;;;;;19.87;69.75;100770.25;1730666;81;20900;-91
2022/06/30 01:09:02;;;;;;;7.85;5.95;;;;;;;19.83;70.01;100771.06;1731057;83;20959;-88
2022/06/30 01:14:18;;;;;;;10.30;6.47;;;;;;;19.74;70.40;100777.24;1732740;81;20908;-91
2022/06/30 01:16:45;;;;;;;7.80;5.85;;;;;;;19.67;70.71;100766.83;1712537;82;21224;-91
2022/06/30 01:19:15;;;;;;;8.80;5.83;;;;;;;19.62;71.08;100768.59;1732386;81;20900;-89
2022/06/30 01:22:03;;;;;;;7.42;6.22;;;;;;;19.58;71.36;100757.06;1711938;82;20911;-90
2022/06/30 01:24:30;;;;;;;7.30;5.45;;;;;;;19.55;71.69;100752.89;1686397;84;20942;-92
2022/06/30 01:26:57;;;;;;;6.65;6.05;;;;;;;19.56;71.99;100762.52;1711584;84;21056;-91
2022/06/30 01:29:24;;;;;;;8.98;6.70;;;;;;;19.55;72.41;100762.70;1711473;82;21230;-91
2022/06/30 01:31:51;;;;;;;10.90;7.03;;;;;;;19.55;72.62;100768.02;1711515;83;20942;-91
2022/06/30 01:34:19;;;;;;;7.22;6.05;;;;;;;19.53;72.58;100760.67;1711603;84;20953;-91
2022/06/30 01:36:47;;;;;;;7.33;5.85;;;;;;;19.50;72.80;100767.12;1711743;83;21082;-91
2022/06/30 01:39:14;;;;;;;8.73;6.20;;;;;;;19.50;73.06;100771.12;1711593;82;20942;-91
2022/06/30 01:41:41;;;;;;;6.50;5.90;;;;;;;19.50;73.29;100772.45;1731314;82;21891;-91
2022/06/30 01:44:11;;;;;;;9.28;6.92;;;;;;;19.49;73.68;100778.73;1711505;82;20938;-91
2022/06/30 01:46:39;;;;;;;10.08;6.83;;;;;;;19.46;73.87;100784.36;1711621;82;20989;-91
2022/06/30 01:49:07;;;;;;;8.05;6.45;;;;;;;19.42;73.93;100787.79;1683827;83;21013;-89
2022/06/30 01:51:34;;;;;;;8.23;7.12;;;;;;;19.41;73.93;100786.63;1731876;82;20868;-91
2022/06/30 01:54:01;;;;;;;11.97;7.55;;;;;;;19.40;73.72;100790.25;1711509;82;21236;-92
2022/06/30 01:56:28;;;;;;;11.12;8.08;;;;;;;19.39;73.58;100793.91;1711297;82;20954;-91
2022/06/30 01:58:55;;;;;;;7.03;6.33;;;;;;;19.40;73.29;100793.74;1711491;82;21411;-91
2022/06/30 02:01:22;;;;;;;9.35;7.50;;;;;;;19.42;73.09;100798.42;1731537;82;20990;-89
2022/06/30 02:03:49;;;;;;;9.05;6.55;;;;;;;19.45;72.88;100804.81;1711702;82;20926;-90
2022/06/30 02:06:16;;;;;;;7.83;7.00;;;;;;;19.46;72.69;100805.14;1711276;82;21263;-92
2022/06/30 02:08:44;;;;;;;9.65;7.03;;;;;;;19.49;72.79;100813.81;1712811;80;20891;-91
2022/06/30 02:11:12;;;;;;;8.40;6.87;;;;;;;19.50;72.84;100814.14;1734808;81;21021;-89
2022/06/30 02:13:42;;;;;;;7.20;6.50;;;;;;;19.52;72.78;100824.16;1713584;82;20954;-91
2022/06/30 02:16:09;;;;;;;6.78;6.08;;;;;;;19.54;72.66;100830.17;1726638;82;20987;-91
2022/06/30 02:18:36;;;;;;;10.95;6.28;;;;;;;19.57;72.70;100833.89;1732103;81;21124;-92
2022/06/30 02:21:03;;;;;;;7.15;6.37;;;;;;;19.59;72.64;100839.41;1730669;81;20888;-91
2022/06/30 02:23:30;;;;;;;7.62;6.75;;;;;;;19.64;71.98;100840.30;1730694;82;21507;-91
2022/06/30 02:25:58;;;;;;;7.75;6.85;;;;;;;19.67;71.48;100844.84;1730833;83;20974;-93
2022/06/30 02:28:25;;;;;;;13.20;7.25;;;;;;;19.72;71.05;100849.77;1730844;81;20931;-93
2022/06/30 02:30:52;;;;;;;8.08;6.45;;;;;;;19.76;70.26;100856.44;1733252;82;22040;-90
2022/06/30 02:33:19;;;;;;;10.00;6.60;;;;;;;19.80;69.78;100859.16;1732065;82;20967;-91
2022/06/30 02:35:46;;;;;;;11.95;6.62;;;;;;;19.83;69.28;100860.22;1730731;81;20931;-92
2022/06/30 02:38:13;;;;;;;11.12;6.75;;;;;;;19.87;68.73;100868.23;1730668;81;21421;-90
2022/06/30 02:40:40;;;;;;;8.60;6.10;;;;;;;19.90;68.35;100861.80;1730688;81;20994;-91
2022/06/30 02:43:07;;;;;;;8.95;5.85;;;;;;;19.93;68.13;100862.83;1730693;81;21235;-92
2022/06/30 02:45:34;;;;;;;10.98;6.47;;;;;;;19.96;67.89;100859.03;1730646;81;21376;-92
2022/06/30 02:48:02;;;;;;;6.83;6.05;;;;;;;19.97;67.19;100850.91;1730826;81;20935;-92
2022/06/30 02:50:29;;;;;;;12.85;7.42;;;;;;;20.01;66.68;100848.30;1730561;81;20962;-91
2022/06/30 02:52:57;;;;;;;8.73;6.90;;;;;;;20.06;66.19;100849.19;1730695;81;20919;-92
2022/06/30 02:55:24;;;;;;;8.40;6.45;;;;;;;20.11;65.49;100866.88;1730826;81;21232;-92
2022/06/30 02:57:51;;;;;;;12.93;6.58;;;;;;;20.16;65.44;100863.27;1730490;81;20900;-92
2022/06/30 03:00:20;;;;;;;18.67;7.35;;;;;;;20.22;65.58;100862.67;1730562;81;21030;-92
2022/06/30 03:02:49;;;;;;;9.00;5.58;;;;;;;20.27;65.53;100859.06;1731938;81;21534;-90
2022/06/30 03:05:15;;;;;;;11.12;5.85;;;;;;;20.34;65.47;100865.13;1733020;83;20928;-93
2022/06/30 03:07:42;;;;;;;10.23;6.42;;;;;;;20.38;65.38;100862.02;1733087;82;21185;-92
2022/06/30 03:10:11;;;;;;;11.48;6.20;;;;;;;20.40;65.38;100864.54;1732828;81;20954;-90
2022/06/30 03:12:39;;;;;;;12.23;6.55;;;;;;;20.42;65.10;100863.40;1731540;83;20943;-91
2022/06/30 03:15:09;;;;;;;10.03;6.58;;;;;;;20.45;64.95;100860.92;1730053;82;20958;-92
2022/06/30 03:17:36;;;;;;;11.33;7.20;;;;;;;20.48;65.06;100853.48;1732441;82;20884;-92
2022/06/30 03:20:04;;;;;;;10.18;7.35;;;;;;;20.51;65.24;100853.66;1711576;82;21214;-91
2022/06/30 03:22:31;;;;;;;11.68;7.17;;;;;;;20.53;65.35;100848.20;1711462;82;20982;-91
2022/06/30 03:25:00;;;;;;;11.93;7.08;;;;;;;20.54;65.43;100854.69;1731788;82;20952;-91
2022/06/30 03:27:27;;;;;;;13.03;6.15;;;;;;;20.55;65.46;100859.04;1711839;82;20989;-92
2022/06/30 03:29:54;;;;;;;10.72;6.97;;;;;;;20.56;65.81;100858.54;1711703;82;21352;-92
2022/06/30 03:32:21;;;;;;;9.38;6.55;;;;;;;20.57;65.87;100858.93;1711965;82;21236;-91
2022/06/30 03:34:48;;;;;;;11.05;7.53;;;;;;;20.57;66.11;100861.09;1711771;82;20938;-92
2022/06/30 03:37:15;;;;;;;9.63;6.12;;;;;;;20.58;66.07;100864.59;1712359;82;20898;-91
2022/06/30 03:39:42;;;;;;;6.95;6.25;;;;;;;20.59;65.48;100859.63;1712322;84;20894;-90
2022/06/30 03:42:10;;;;;;;12.20;6.50;;;;;;;20.61;65.60;100860.28;1712507;84;20923;-91
2022/06/30 03:44:37;;;;;;;11.85;7.03;;;;;;;20.61;65.62;100850.48;1713217;82;21266;-92
2022/06/30 03:47:05;;;;;;;9.25;7.10;;;;;;;20.62;64.70;100845.98;1713965;84;20851;-90
2022/06/30 03:49:32;;;;;;;12.98;6.97;;;;;;;;;;1714050;82;20934;-90
2022/06/30 03:52:00;;;;;;;8.18;5.92;;;;;;;20.74;65.43;100849.25;1734471;81;20974;-91
2022/06/30 03:54:27;;;;;;;12.60;7.95;;;;;;;20.79;65.51;100846.98;1712712;84;21006;-92
2022/06/30 03:56:54;;;;;;;9.38;7.10;;;;;;;20.85;65.51;100852.54;1712322;82;22173;-93
2022/06/30 03:59:21;;;;;;;8.43;7.22;;;;;;;20.91;65.45;100849.73;1732245;83;20927;-91
2022/06/30 04:01:49;;;;;;;9.53;6.40;;;;;;;20.97;65.46;100849.63;1712114;83;20954;-92
2022/06/30 04:04:16;;;;;;;9.75;6.60;;;;;;;21.00;65.69;100845.31;1712170;82;20927;-92
2022/06/30 04:06:43;;;;;;;13.13;6.83;;;;;;;21.04;65.81;100843.52;1714271;82;20926;-90
2022/06/30 04:09:10;;;;;;;10.30;5.72;;;;;;;21.06;66.06;100846.86;1714423;80;21103;-91
2022/06/30 04:11:37;;;;;;;8.83;6.35;;;;;;;21.11;66.29;100856.56;1734248;82;20979;-92
2022/06/30 04:14:05;;;;;;;10.82;7.45;;;;;;;21.14;65.57;100853.25;1714093;84;21320;-91
2022/06/30 04:16:31;;;;;;;10.18;6.78;;;;;;;21.14;64.50;100859.91;1723929;83;20987;-90
2022/06/30 04:18:59;;;;;;;14.15;6.17;;;;;;;21.16;63.25;100857.93;1711150;84;20994;-92
2022/06/30 04:21:26;;;;;;;8.58;6.30;;;;;;;21.18;62.35;100858.11;1710816;84;21877;-91
2022/06/30 04:23:53;;;;;;;13.18;6.42;;;;;;;21.19;61.62;100857.14;1710704;82;20867;-92
2022/06/30 04:26:20;;;;;;;10.70;6.55;;;;;;;21.20;60.94;100860.13;1710778;82;21451;-92
2022/06/30 04:28:48;;;;;;;11.38;5.65;;;;;;;21.22;59.81;100861.31;1710796;84;20986;-91
2022/06/30 04:34:00;;;;;;;14.47;6.55;;;;;;;21.29;58.46;100849.02;1710756;82;21459;-92
2022/06/30 04:36:27;;;;;;;8.75;5.70;;;;;;;21.31;58.08;100855.88;1710656;82;21021;-91
2022/06/30 04:38:54;;;;;;;8.15;5.60;;;;;;;21.36;58.31;100852.73;1710605;82;21622;-90
2022/06/30 04:41:27;;;;;;;10.05;6.20;;;;;;;21.41;57.79;100853.63;1710889;82;21472;-91
2022/06/30 04:43:55;;;;;;;10.95;5.67;;;;;;;21.46;57.57;100843.34;1711489;82;20887;-90
2022/06/30 04:46:22;;;;;;;6.92;5.55;;;;;;;21.52;56.68;100846.22;1711237;82;21361;-92
2022/06/30 04:48:50;;;;;;;14.73;6.35;;;;;;;21.56;55.95;100842.72;1711654;82;20994;-90
2022/06/30 04:51:16;;;;;;;12.55;6.05;;;;;;;21.61;55.69;100843.57;1710826;82;20907;-90
2022/06/30 04:53:44;;;;;;;11.15;5.47;;;;;;;21.63;55.35;100836.25;1711051;82;20903;-90
2022/06/30 04:56:11;;;;;;;5.42;4.90;;;;;;;21.69;54.91;100843.63;1710690;82;21055;-91
2022/06/30 04:58:38;;;;;;;10.38;5.75;;;;;;;21.73;54.61;100846.32;1710577;84;21925;-90
2022/06/30 05:01:05;;;;;;;11.50;6.42;;;;;;;21.79;54.46;100852.36;1711137;82;20934;-91
2022/06/30 05:03:35;;;;;;;6.85;5.50;;;;;;;21.84;54.46;100851.38;1711280;82;20848;-92
2022/06/30 05:06:03;;;;;;;10.50;4.92;;;;;;;21.88;54.24;100842.56;1743678;81;21202;-92
2022/06/30 05:08:30;;;;;;;9.43;5.78;;;;;;;21.93;53.79;100845.07;1744302;82;20951;-90
2022/06/30 05:10:58;;;;;;;9.83;5.78;;;;;;;22.02;53.27;100853.13;1743848;82;21170;-91
2022/06/30 05:13:25;;;;;;;13.08;6.65;;;;;;;22.07;52.69;100849.46;1743234;82;20848;-90
2022/06/30 05:15:52;;;;;;;7.22;5.40;;;;;;;22.11;52.91;100851.64;1736574;82;20994;-92
2022/06/30 05:18:20;;;;;;;10.53;7.22;;;;;;;22.18;52.23;100849.67;1709329;84;20931;-91
2022/06/30 05:20:46;;;;;;;10.15;6.33;;;;;;;22.20;51.65;100848.50;1722504;83;20888;-90
2022/06/30 05:23:13;;;;;;;9.70;6.58;;;;;;;22.23;51.73;100856.25;1722702;83;21853;-91
2022/06/30 05:28:26;;;;;;;15.72;5.75;;;;;;;22.30;51.63;100859.94;1724258;83;20876;-88
2022/06/30 05:30:55;;;;;;;12.37;6.67;;;;;;;22.33;51.51;100856.92;1723961;83;20913;-91
2022/06/30 05:33:22;;;;;;;11.95;6.20;;;;;;;22.39;51.87;100860.80;1723246;83;21389;-91
2022/06/30 05:35:51;;;;;;;7.65;5.53;;;;;;;22.46;51.62;100855.63;1721568;83;21849;-92
2022/06/30 05:38:18;;;;;;;13.83;6.70;;;;;;;22.53;51.29;100864.66;1721458;83;21472;-91
2022/06/30 05:40:46;;;;;;;8.68;6.20;;;;;;;22.58;50.64;100860.16;1721698;83;20928;-93
2022/06/30 05:43:15;;;;;;;14.10;6.25;;;;;;;22.61;50.42;100858.48;1721567;83;20959;-93
2022/06/30 05:45:42;;;;;;;11.78;5.47;;;;;;;22.64;50.66;100864.34;1721329;83;21448;-92
2022/06/30 05:48:09;;;;;;;14.58;5.65;;;;;;;22.68;50.68;100863.02;1721477;83;21287;-93
2022/06/30 05:50:36;;;;;;;10.13;5.97;;;;;;;22.74;50.90;100864.17;1721370;83;20868;-89
2022/06/30 05:53:05;;;;;;;12.80;5.67;;;;;;;22.76;51.04;100868.34;1721372;83;21104;-91
2022/06/30 05:55:32;;;;;;;12.33;5.67;;;;;;;22.80;51.13;100865.36;1721572;83;20877;-91
2022/06/30 05:58:08;;;;;;;8.30;5.67;;;;;;;22.81;50.89;100856.33;1721622;83;20928;-90
2022/06/30 06:00:32;;;;;;;10.58;5.72;;;;;;;22.84;51.02;100864.03;1710107;83;21222;-91
2022/06/30 06:02:59;;;;;;;14.75;6.67;;;;;;;22.87;51.57;100869.87;1721677;83;20947;-91
2022/06/30 06:05:27;;;;;;;13.28;6.72;;;;;;;22.90;50.78;100869.55;1723947;83;20944;-90
2022/06/30 06:07:53;;;;;;;10.10;5.50;;;;;;;22.93;50.81;100863.86;1723651;83;20912;-91
2022/06/30 06:10:20;;;;;;;7.55;5.17;;;;;;;22.96;51.05;100863.52;1723811;83;21003;-89
2022/06/30 06:12:47;;;;;;;15.58;6.25;;;;;;;22.99;50.98;100869.06;1723201;83;21129;-90
2022/06/30 06:15:14;;;;;;;13.85;6.08;;;;;;;23.02;51.07;100882.13;1722554;83;20892;-92
2022/06/30 06:17:47;;;;;;;12.60;5.90;;;;;;;23.06;51.31;100879.95;1730434;83;20951;-92
2022/06/30 06:20:17;;;;;;;10.35;5.78;;;;;;;23.09;51.20;100877.77;1714327;82;20910;-91
2022/06/30 06:22:44;;;;;;;16.62;5.85;;;;;;;23.13;50.89;100876.94;1713716;82;20898;-91
2022/06/30 06:25:12;;;;;;;11.50;5.40;;;;;;;23.12;50.43;100869.42;1712411;82;21773;-93
2022/06/30 06:27:39;;;;;;;8.38;5.87;;;;;;;23.13;50.20;100863.05;1712982;82;20871;-92
2022/06/30 06:30:10;;;;;;;9.48;5.65;;;;;;;23.14;50.47;100858.05;1732722;82;21488;-91
2022/06/30 06:32:38;;;;;;;9.63;5.92;;;;;;;23.18;50.80;100863.38;1712369;82;20953;-89
2022/06/30 06:35:07;;;;;;;10.80;6.95;;;;;;;23.22;50.51;100858.53;1712347;82;20927;-92
2022/06/30 06:37:34;;;;;;;7.53;5.12;;;;;;;23.24;49.95;100863.72;1731563;82;21201;-91
2022/06/30 06:40:01;;;;;;;9.25;5.30;;;;;;;23.21;49.29;100862.23;1711549;84;21064;-92
2022/06/30 06:42:28;;;;;;;9.38;5.55;;;;;;;23.17;49.13;100852.86;1711573;82;20930;-92
2022/06/30 06:44:55;;;;;;;12.00;5.05;;;;;;;23.13;48.66;100848.84;1731480;82;20939;-92
2022/06/30 06:47:23;;;;;;;6.10;4.92;;;;;;;23.11;48.41;100845.50;1711897;82;21013;-92
2022/06/30 06:49:50;;;;;;;11.80;4.97;;;;;;;23.10;47.86;100851.36;1711669;82;21259;-91
2022/06/30 06:52:17;;;;;;;8.45;5.00;;;;;;;23.09;48.11;100849.67;1711472;84;21419;-90
2022/06/30 06:54:44;;;;;;;9.25;4.85;;;;;;;23.11;47.49;100852.19;1731861;81;20892;-90
2022/06/30 06:57:10;;;;;;;7.42;4.62;;;;;;;23.12;47.36;100856.05;1711769;82;21415;-90
2022/06/30 06:59:38;;;;;;;9.83;4.92;;;;;;;23.13;46.88;100853.69;1711921;84;21009;-90
2022/06/30 07:02:06;;;;;;;11.60;5.00;;;;;;;23.16;47.28;100843.15;1732016;83;21227;-90
2022/06/30 07:04:34;;;;;;;8.13;4.85;;;;;;;23.21;47.10;100842.64;1714237;82;20847;-87
2022/06/30 07:07:01;;;;;;;12.50;4.65;;;;;;;23.28;46.74;100836.45;1714383;82;21164;-89
2022/06/30 07:09:29;;;;;;;8.43;5.30;;;;;;;23.37;46.41;100838.62;1733375;82;20979;-91
2022/06/30 07:11:55;;;;;;;8.38;5.10;;;;;;;23.42;46.71;100836.77;1713045;84;20882;-91
2022/06/30 07:14:22;;;;;;;9.43;4.45;;;;;;;23.47;46.62;100839.24;1733257;82;21223;-91
2022/06/30 07:16:49;;;;;;;8.70;4.85;;;;;;;23.51;46.39;100828.53;1711083;82;21441;-90
2022/06/30 07:21:09;;;;;;;9.83;5.62;;;;;;;23.62;46.49;100847.92;1799352;79;21910;-91
2022/06/30 07:23:36;;;;;;;8.48;4.15;;;;;;;23.62;46.49;100847.92;1759070;80;20881;-90
2022/06/30 07:26:03;;;;;;;9.55;5.22;;;;;;;23.68;46.28;100852.56;1759237;81;21163;-91
2022/06/30 07:28:31;;;;;;;7.92;5.20;;;;;;;23.71;46.04;100843.70;1759016;81;20932;-91
2022/06/30 07:30:58;;;;;;;9.85;4.50;;;;;;;23.73;45.88;100849.72;1758925;81;20848;-91
2022/06/30 07:33:26;;;;;;;11.35;4.83;;;;;;;23.74;46.01;100847.36;1759022;81;20892;-91
2022/06/30 07:35:53;;;;;;;8.45;5.10;;;;;;;23.76;46.06;100849.91;1758919;80;20948;-91
2022/06/30 07:38:20;;;;;;;8.23;5.33;;;;;;;23.79;46.43;100844.22;1758908;80;21802;-91
2022/06/30 07:40:46;;;;;;;9.78;6.12;;;;;;;23.84;46.37;100843.70;1758992;81;20932;-90
2022/06/30 07:43:14;;;;;;;13.00;5.72;;;;;;;23.86;45.87;100841.69;1759249;81;20908;-91
2022/06/30 07:45:40;;;;;;;13.03;7.78;;;;;;;23.89;45.58;100846.17;1758903;80;20936;-90
2022/06/30 07:48:07;;;;;;;9.90;5.45;;;;;;;23.92;45.34;100841.83;1759196;80;20873;-91
2022/06/30 07:50:35;;;;;;;10.00;5.95;;;;;;;23.93;45.16;100839.46;1759217;81;21152;-90
2022/06/30 07:53:01;;;;;;;9.98;4.90;;;;;;;23.95;45.07;100837.45;1759635;81;20972;-89
2022/06/30 07:55:28;;;;;;;13.18;4.92;;;;;;;23.98;45.11;100842.45;1759688;81;20845;-93
2022/06/30 07:57:57;;;;;;;8.08;5.20;;;;;;;24.05;44.91;100843.92;1759301;81;20904;-90
2022/06/30 08:00:24;;;;;;;8.98;5.40;;;;;;;24.12;45.39;100835.53;1759142;80;21551;-92
2022/06/30 08:02:52;;;;;;;9.18;5.58;;;;;;;24.23;45.16;100837.47;1760825;81;21067;-87
2022/06/30 08:05:21;;;;;;;12.90;4.87;;;;;;;24.28;44.85;100829.25;1761210;80;20947;-92
2022/06/30 08:07:48;;;;;;;8.45;4.95;;;;;;;24.36;45.22;100831.03;1761108;80;20893;-91
2022/06/30 08:10:16;;;;;;;13.55;5.10;;;;;;;24.42;45.23;100830.33;1760730;81;20868;-91
2022/06/30 08:12:43;;;;;;;6.70;5.10;;;;;;;24.49;45.22;100827.28;1759967;80;20936;-92
2022/06/30 08:15:10;;;;;;;7.78;5.03;;;;;;;24.60;45.12;100829.55;1758922;81;21098;-91
2022/06/30 08:17:38;;;;;;;10.50;5.22;;;;;;;24.79;45.16;100830.10;1758982;80;21417;-91
2022/06/30 08:20:06;;;;;;;8.23;5.15;;;;;;;25.04;43.25;100822.66;1758832;81;20967;-92
2022/06/30 08:22:33;;;;;;;7.50;5.15;;;;;;;25.27;43.38;100817.26;1759426;81;20947;-91
2022/06/30 08:25:00;;;;;;;6.95;4.95;;;;;;;25.51;43.16;100818.02;1759795;81;20939;-91
2022/06/30 08:27:28;;;;;;;11.35;5.33;;;;;;;25.71;42.03;100819.64;1759171;81;21140;-90
2022/06/30 08:29:56;;;;;;;13.53;5.67;;;;;;;25.88;41.67;100816.25;1759311;81;20876;-90
2022/06/30 08:32:27;;;;;;;10.18;5.78;;;;;;;26.05;41.80;100808.30;1759104;81;21018;-91
2022/06/30 08:34:54;;;;;;;7.67;5.20;;;;;;;26.20;41.11;100809.61;1758918;80;20964;-93
2022/06/30 08:37:21;;;;;;;13.08;6.45;;;;;;;26.36;41.63;100811.22;1759340;81;20971;-92
2022/06/30 08:42:37;;;;;;;10.98;6.35;;;;;;;26.71;40.67;100809.52;1758844;81;20904;-93
2022/06/30 08:45:19;;;;;;;48.00;42.88;;;;;;;26.86;40.75;100814.31;1759537;81;20880;-92
2022/06/30 08:47:46;;;;;;;10.85;6.17;;;;;;;26.99;41.05;100816.78;1758954;81;20947;-93
2022/06/30 08:50:14;;;;;;;10.75;7.37;;;;;;;27.04;41.51;100818.39;1758998;81;21491;-91
2022/06/30 08:52:53;;;;;;;6.37;5.72;;;;;;;27.12;40.64;100819.57;1758897;81;21900;-91
2022/06/30 08:55:30;;;;;;;13.53;6.90;;;;;;;27.20;40.61;100822.64;1758517;80;20890;-92
2022/06/30 08:58:08;;;;;;;17.02;8.88;;;;;;;27.24;40.51;100827.47;1723059;82;20963;-92
2022/06/30 09:00:46;;;;;;;14.98;7.33;;;;;;;27.21;39.32;100821.14;1722753;83;21007;-91
2022/06/30 09:03:11;;;;;;;10.85;6.78;;;;;;;27.17;39.67;100821.67;1723751;81;20963;-91
2022/06/30 09:05:41;;;;;;;18.85;13.43;;;;;;;27.15;40.90;100825.93;1725123;83;21279;-91
2022/06/30 09:08:09;;;;;;;16.85;10.70;;;;;;;27.15;40.83;100821.89;1704479;84;20905;-91
2022/06/30 09:10:51;;;;;;;39.50;27.77;;;;;;;27.12;41.19;100824.95;1705821;84;20869;-91
2022/06/30 09:13:20;;;;;;;18.95;14.20;;;;;;;27.08;41.29;100831.27;1722713;82;20840;-93
2022/06/30 09:15:49;;;;;;;13.55;8.53;;;;;;;26.90;41.66;100821.98;1704811;84;20893;-90
2022/06/30 09:18:25;;;;;;;9.38;8.03;;;;;;;26.75;42.14;100829.64;1704677;84;21116;-90
2022/06/30 09:20:53;;;;;;;14.18;7.80;;;;;;;26.68;42.29;100827.41;1702881;84;20898;-92
2022/06/30 09:23:25;;;;;;;14.60;9.33;;;;;;;26.64;42.33;100829.64;1710007;84;21548;-91
2022/06/30 09:25:56;;;;;;;10.72;6.58;;;;;;;26.57;42.32;100829.24;1709393;83;20949;-92
2022/06/30 09:28:54;;;;;;;11.70;6.42;;;;;;;26.52;42.52;100829.78;1708990;83;20901;-91
2022/06/30 09:31:39;;;;;;;10.08;6.62;;;;;;;26.51;42.57;100822.76;1716570;83;21768;-91
2022/06/30 09:34:19;;;;;;;13.35;7.53;;;;;;;26.55;43.04;100820.53;1701145;84;20969;-92
2022/06/30 09:36:47;;;;;;;8.58;5.12;;;;;;;26.54;43.22;100818.84;1702581;84;20949;-91
2022/06/30 09:39:16;;;;;;;8.88;5.03;;;;;;;26.57;43.25;100813.95;1701957;84;21004;-91
2022/06/30 09:41:44;;;;;;;8.43;5.20;;;;;;;26.65;43.41;100819.19;1701319;84;21008;-95
2022/06/30 09:44:21;;;;;;;12.45;5.87;;;;;;;26.75;43.32;100819.41;1701018;84;21891;-91
2022/06/30 09:47:12;;;;;;;9.78;5.08;;;;;;;26.84;42.27;100817.71;1701225;84;20905;-93
2022/06/30 09:49:45;;;;;;;12.63;5.70;;;;;;;26.93;42.30;100821.09;1701075;84;20933;-91
2022/06/30 09:52:21;;;;;;;8.53;5.45;;;;;;;26.99;41.81;100812.74;1701561;84;20976;-89
2022/06/30 09:55:03;;;;;;;6.72;5.95;;;;;;;27.05;41.84;100820.05;1702422;84;21408;-90
2022/06/30 09:57:38;;;;;;;7.50;5.62;;;;;;;27.09;41.55;100815.94;1678908;84;20890;-90
2022/06/30 10:00:10;;;;;;;;;;;;;;;27.14;41.69;100813.48;1680196;84;20992;-89
2022/06/30 10:02:42;;;;;;;9.98;5.28;;;;;;;27.20;41.71;100811.35;1703904;82;20055;-90
2022/06/30 10:05:10;;;;;;;12.37;7.35;;;;;;;27.26;41.66;100813.30;1703873;82;21118;-91
2022/06/30 10:07:38;;;;;;;10.00;5.10;;;;;;;27.31;41.50;100818.09;1703696;84;20949;-91
2022/06/30 10:10:12;;;;;;;10.75;5.12;;;;;;;27.36;41.96;100812.93;1704756;82;21167;-92
2022/06/30 10:12:40;;;;;;;9.40;5.10;;;;;;;27.49;41.90;100812.19;1753626;82;20849;-92
2022/06/30 10:15:08;;;;;;;12.03;5.50;;;;;;;27.61;41.78;100809.75;1717237;83;21003;-93
2022/06/30 10:17:49;;;;;;;9.08;5.33;;;;;;;27.70;41.63;100806.71;1717692;83;21382;-91
2022/06/30 10:20:16;;;;;;;9.08;5.85;;;;;;;27.83;41.13;100791.61;1751065;81;20881;-92
2022/06/30 10:22:43;;;;;;;15.13;6.08;;;;;;;27.98;40.98;100788.28;1745935;82;22346;-90
2022/06/30 10:25:10;;;;;;;14.85;6.62;;;;;;;28.16;40.42;100796.31;1745710;81;20972;-91
2022/06/30 10:27:37;;;;;;;15.68;6.95;;;;;;;28.47;39.84;100798.45;1745656;81;21588;-91
2022/06/30 10:30:09;;;;;;;10.55;6.55;;;;;;;28.78;39.54;100788.95;1746044;81;21484;-90
2022/06/30 10:32:55;;;;;;;14.40;8.15;;;;;;;29.02;38.84;100797.77;1708751;84;20892;-91
2022/06/30 10:35:45;;;;;;;20.80;8.33;;;;;;;29.21;38.34;100802.84;1710094;84;21140;-90
2022/06/30 10:38:46;;;;;;;12.73;7.60;;;;;;;29.35;37.69;100814.48;1710022;82;20987;-93
2022/06/30 10:41:15;;;;;;;14.75;6.35;;;;;;;29.38;37.97;100807.81;1709915;84;21003;-90
2022/06/30 10:44:08;;;;;;;9.68;6.35;;;;;;;29.31;38.74;100806.48;1709964;82;20935;-90
2022/06/30 10:46:37;;;;;;;8.53;6.78;;;;;;;29.22;38.81;100807.22;1709709;84;20923;-89
2022/06/30 10:49:12;;;;;;;10.00;6.30;;;;;;;29.13;38.80;100809.84;1709231;83;21245;-91
2022/06/30 10:51:39;;;;;;;10.28;7.17;;;;;;;29.04;38.78;100808.36;1709699;84;21007;-90
2022/06/30 10:54:06;;;;;;;10.98;7.67;;;;;;;28.92;38.81;100802.74;1709684;82;21349;-91
2022/06/30 10:56:54;;;;;;;11.53;7.87;;;;;;;28.76;39.11;100805.34;1709409;82;20924;-92
2022/06/30 10:59:36;;;;;;;11.80;6.62;;;;;;;28.65;39.49;100803.27;1709763;84;21274;-91
2022/06/30 11:02:18;;;;;;;10.63;7.22;;;;;;;28.56;39.46;100797.23;1714461;81;21034;-90
2022/06/30 11:04:48;;;;;;;11.80;7.50;;;;;;;28.51;39.56;100797.86;1712059;81;21164;-91
2022/06/30 11:07:23;;;;;;;15.18;7.08;;;;;;;28.64;39.75;100797.05;1747847;81;20906;-90
2022/06/30 11:09:57;;;;;;;13.35;6.85;;;;;;;28.95;39.52;100792.89;1747220;82;20901;-92
2022/06/30 11:12:37;;;;;;;10.90;7.10;;;;;;;29.26;38.76;100781.45;1745795;81;20964;-91
2022/06/30 11:15:04;;;;;;;15.78;7.30;;;;;;;29.65;38.21;100790.45;1745532;82;21090;-91
2022/06/30 11:17:32;;;;;;;11.38;6.92;;;;;;;29.84;37.77;100788.76;1745327;81;21023;-90
2022/06/30 11:20:13;;;;;;;10.55;6.75;;;;;;;29.96;37.13;100791.61;1745358;81;20869;-90
2022/06/30 11:22:42;;;;;;;9.18;6.50;;;;;;;29.93;36.42;100790.16;1758821;80;20936;-92
2022/06/30 11:27:17;;;;;;;11.80;6.78;;;;;;;29.81;36.82;100792.41;1758991;80;20935;-91
2022/06/30 11:27:44;;;;;;;9.98;6.35;;;;;;;29.70;37.09;100793.90;1756407;80;21160;-91
2022/06/30 11:30:11;;;;;;;10.28;6.62;;;;;;;29.51;37.16;100788.86;1758758;80;20977;-92
2022/06/30 11:32:41;;;;;;;9.03;6.05;;;;;;;29.29;37.38;100795.05;1759447;78;20880;-92
2022/06/30 11:35:08;;;;;;;11.90;6.72;;;;;;;29.08;37.86;100788.86;1759588;81;20888;-92
2022/06/30 11:37:35;;;;;;;12.20;5.83;;;;;;;28.92;38.23;100786.55;1759625;81;20971;-90
2022/06/30 11:40:12;;;;;;;10.53;5.87;;;;;;;28.78;38.05;100787.60;1761336;80;20910;-91
2022/06/30 11:42:39;;;;;;;9.43;4.72;;;;;;;28.59;38.53;100789.25;1743724;80;20884;-89